Time;durP1;ratioP1;P1;durP2;ratioP2;P2;SDS_P1;SDS_P2;PMS_P1;PMS_P2;Temp;Humidity;BMP_temperature;BMP_pressure;BME280_temperature;BME280_humidity;BME280_pressure;Samples;Min_cycle;Max_cycle;Signal;HPM_P1;HPM_P2
2022/07/03 00:01:59;;;;;;;4.10;2.58;;;;;;;28.65;35.11;101846.00;5055628;28;20025;-72
2022/07/03 00:04:24;;;;;;;2.63;2.40;;;;;;;28.71;35.08;101845.56;5055542;28;20120;-72
2022/07/03 00:06:52;;;;;;;5.57;2.30;;;;;;;28.61;34.84;101840.78;5054840;28;20396;-72
2022/07/03 00:09:18;;;;;;;3.65;2.60;;;;;;;28.74;35.06;101837.25;5073553;28;20028;-72
2022/07/03 00:11:44;;;;;;;3.72;2.30;;;;;;;28.92;34.50;101848.53;5073518;28;20050;-72
2022/07/03 00:14:10;;;;;;;4.30;2.55;;;;;;;28.69;34.99;101848.34;5072792;28;20025;-72
2022/07/03 00:16:35;;;;;;;5.53;2.58;;;;;;;28.75;34.77;101852.44;5055377;28;20115;-72
2022/07/03 00:19:00;;;;;;;7.60;2.78;;;;;;;28.66;35.17;101853.09;5073198;28;20031;-72
2022/07/03 00:21:41;;;;;;;3.95;2.40;;;;;;;28.76;35.29;101843.41;5054577;28;20021;-72
2022/07/03 00:24:25;;;;;;;5.63;2.58;;;;;;;28.89;35.14;101843.38;5055424;28;20380;-72
2022/07/03 00:26:52;;;;;;;3.10;2.10;;;;;;;28.85;34.89;101845.44;5055107;28;20028;-72
2022/07/03 00:29:21;;;;;;;5.20;2.58;;;;;;;28.63;35.52;101845.22;5054347;28;20063;-72
2022/07/03 00:31:47;;;;;;;2.47;2.10;;;;;;;28.71;34.79;101848.25;5072704;28;20467;-72
2022/07/03 00:34:16;;;;;;;3.92;2.53;;;;;;;28.65;34.78;101848.69;5054953;28;20020;-71
2022/07/03 00:36:43;;;;;;;3.08;2.25;;;;;;;29.03;34.52;101850.44;5054270;28;20551;-71
2022/07/03 00:39:08;;;;;;;4.82;2.70;;;;;;;28.23;35.69;101847.06;5054833;28;20025;-72
2022/07/03 00:41:35;;;;;;;4.57;2.50;;;;;;;28.92;34.78;101854.78;5071824;28;20175;-72
2022/07/03 00:44:02;;;;;;;3.38;2.10;;;;;;;28.90;35.15;101848.63;5053873;28;20025;-72
2022/07/03 00:46:29;;;;;;;5.25;2.17;;;;;;;28.76;35.31;101848.78;5054667;28;20021;-72
2022/07/03 00:48:55;;;;;;;4.57;2.47;;;;;;;29.02;35.33;101854.13;5053938;28;20473;-72
2022/07/03 00:51:24;;;;;;;2.97;2.38;;;;;;;29.21;34.57;101854.50;5072253;28;20107;-72
2022/07/03 00:53:52;;;;;;;3.47;2.30;;;;;;;29.02;34.40;101848.75;5054570;28;20395;-72
2022/07/03 00:56:23;;;;;;;2.70;2.45;;;;;;;28.71;35.22;101849.09;5054022;28;20446;-72
2022/07/03 00:58:52;;;;;;;3.45;2.22;;;;;;;29.04;34.85;101852.16;5054487;28;20106;-72
2022/07/03 01:01:18;;;;;;;2.55;2.08;;;;;;;29.05;34.56;101849.38;5054428;28;20334;-72
2022/07/03 01:03:45;;;;;;;4.78;2.30;;;;;;;28.70;35.35;101849.22;5053423;28;20017;-72
2022/07/03 01:06:15;;;;;;;3.20;2.50;;;;;;;28.90;35.34;101847.78;5072250;28;20036;-72
2022/07/03 01:08:46;;;;;;;3.65;2.30;;;;;;;28.68;34.98;101851.16;5072148;28;20419;-72
2022/07/03 01:11:30;;;;;;;4.28;2.60;;;;;;;29.05;34.86;101843.13;5053486;28;20032;-72
2022/07/03 01:14:16;;;;;;;3.72;2.55;;;;;;;29.23;34.39;101831.00;5054463;28;20028;-72
2022/07/03 01:17:02;;;;;;;5.25;2.78;;;;;;;29.45;33.97;101829.44;5053277;28;20032;-72
2022/07/03 01:19:47;;;;;;;6.88;2.70;;;;;;;29.54;33.76;101831.47;5072009;28;20597;-72
2022/07/03 01:22:40;;;;;;;3.22;1.92;;;;;;;28.91;34.46;101836.91;5054139;28;20067;-72
2022/07/03 01:25:25;;;;;;;2.72;2.13;;;;;;;28.55;34.63;101830.50;5053098;28;20052;-72
2022/07/03 01:28:14;;;;;;;3.58;2.53;;;;;;;29.02;34.02;101843.38;5054069;28;20047;-72
2022/07/03 01:30:53;;;;;;;4.82;2.10;;;;;;;29.18;34.02;101833.19;5053203;28;20036;-72
2022/07/03 01:33:23;;;;;;;2.25;2.00;;;;;;;29.00;34.18;101834.53;5072102;28;20071;-71
2022/07/03 01:36:01;;;;;;;2.88;1.90;;;;;;;28.78;34.75;101830.69;5053776;28;20426;-72
2022/07/03 01:38:29;;;;;;;3.92;2.13;;;;;;;29.28;33.56;101818.09;5053156;28;20028;-72
2022/07/03 01:40:56;;;;;;;4.55;2.08;;;;;;;29.47;33.64;101827.50;5071888;28;20472;-72
2022/07/03 01:43:34;;;;;;;6.82;2.28;;;;;;;29.08;34.25;101832.13;5071683;28;20097;-72
2022/07/03 01:46:01;;;;;;;2.28;1.75;;;;;;;29.17;34.39;101826.09;5053019;28;20037;-72
2022/07/03 01:48:29;;;;;;;2.75;1.90;;;;;;;28.89;34.89;101821.84;5053557;28;20166;-72
2022/07/03 01:50:56;;;;;;;4.28;1.83;;;;;;;28.91;34.83;101810.00;5071763;28;20514;-71
2022/07/03 01:53:25;;;;;;;3.83;1.83;;;;;;;28.98;34.96;101817.66;5052942;28;20066;-72
2022/07/03 01:55:55;;;;;;;5.57;1.70;;;;;;;29.05;34.95;101811.69;5076308;28;20032;-72
2022/07/03 01:58:21;;;;;;;1.55;1.45;;;;;;;28.96;35.04;101816.88;5060085;28;20462;-72
2022/07/03 02:01:13;;;;;;;1.65;1.40;;;;;;;28.78;35.61;101814.56;5077556;28;20032;-72
2022/07/03 02:03:46;;;;;;;3.47;1.92;;;;;;;28.93;34.73;101813.47;5078365;28;20059;-72
2022/07/03 02:06:35;;;;;;;3.10;1.75;;;;;;;29.07;34.09;101819.66;5059615;28;20033;-72
2022/07/03 02:09:04;;;;;;;2.65;1.45;;;;;;;28.86;34.52;101816.69;5060252;28;20043;-72
2022/07/03 02:11:35;;;;;;;3.30;2.45;;;;;;;28.94;34.25;101815.16;5060217;28;20024;-72
2022/07/03 02:14:18;;;;;;;1.90;1.30;;;;;;;28.87;34.50;101816.59;5059326;28;20503;-72
2022/07/03 02:16:48;;;;;;;3.80;1.50;;;;;;;29.08;33.95;101810.59;5060193;28;20020;-72
2022/07/03 02:19:15;;;;;;;3.95;1.45;;;;;;;28.84;34.19;101807.88;5060094;28;20119;-72
2022/07/03 02:21:48;;;;;;;3.35;1.40;;;;;;;29.33;33.42;101806.13;5059441;28;20469;-72
2022/07/03 02:24:18;;;;;;;;;;;;;;;29.21;34.28;101806.03;5060764;28;20423;-72
2022/07/03 02:26:50;;;;;;;2.65;1.05;;;;;;;29.11;34.42;101807.69;5060002;28;19908;-72
2022/07/03 02:29:20;;;;;;;2.75;1.67;;;;;;;29.15;34.37;101795.72;5059573;28;20031;-72
2022/07/03 02:31:48;;;;;;;4.97;1.73;;;;;;;29.08;34.36;101794.47;5059968;28;20058;-72
2022/07/03 02:34:16;;;;;;;3.40;1.48;;;;;;;29.06;34.51;101791.03;5059349;28;20037;-72
2022/07/03 02:36:45;;;;;;;2.83;1.50;;;;;;;29.02;34.80;101800.31;5077743;28;20089;-72
2022/07/03 02:39:18;;;;;;;4.45;1.52;;;;;;;29.27;34.22;101799.38;5060013;28;20040;-72
2022/07/03 02:41:51;;;;;;;3.13;1.40;;;;;;;29.10;34.76;101797.91;5077141;28;20512;-72
2022/07/03 02:44:25;;;;;;;3.05;1.33;;;;;;;29.12;34.63;101795.94;5060056;28;20024;-72
2022/07/03 02:47:28;;;;;;;1.40;1.30;;;;;;;29.25;34.41;101796.81;5077926;28;20476;-72
2022/07/03 02:50:08;;;;;;;3.85;1.20;;;;;;;29.01;34.32;101793.22;5077074;28;20028;-72
2022/07/03 02:52:45;;;;;;;7.25;1.52;;;;;;;29.17;34.04;101803.69;5060028;28;20028;-72
2022/07/03 02:55:13;;;;;;;3.13;1.35;;;;;;;29.21;34.59;101800.66;5059436;28;20115;-72
2022/07/03 02:57:40;;;;;;;1.80;1.42;;;;;;;28.81;35.39;101790.16;5060080;28;20032;-71
2022/07/03 03:00:09;;;;;;;1.70;1.15;;;;;;;29.24;34.63;101789.69;5077913;28;20103;-71
2022/07/03 03:02:49;;;;;;;1.42;1.10;;;;;;;29.24;34.79;101794.19;5059147;28;20502;-72
2022/07/03 03:05:23;;;;;;;4.00;1.52;;;;;;;29.48;34.57;101796.03;5077708;28;20031;-72
2022/07/03 03:08:07;;;;;;;4.30;1.20;;;;;;;29.48;34.51;101796.91;5056151;28;20036;-72
2022/07/03 03:10:37;;;;;;;2.92;1.33;;;;;;;29.16;35.21;101801.97;5073961;28;20028;-72
2022/07/03 03:13:13;;;;;;;3.05;1.00;;;;;;;29.34;34.87;101799.78;5056609;28;20078;-72
2022/07/03 03:15:47;;;;;;;3.45;1.20;;;;;;;29.05;35.31;101800.06;5074567;28;20032;-72
2022/07/03 03:18:20;;;;;;;6.15;1.20;;;;;;;29.38;34.93;101801.28;5073733;28;20439;-71
2022/07/03 03:20:48;;;;;;;3.60;1.30;;;;;;;29.31;34.90;101800.03;5074631;28;20396;-72
2022/07/03 03:23:23;;;;;;;3.15;1.30;;;;;;;29.19;35.36;101802.59;5055738;28;20040;-72
2022/07/03 03:25:51;;;;;;;5.38;1.20;;;;;;;29.23;34.88;101804.09;5056403;28;20025;-72
2022/07/03 03:28:16;;;;;;;4.70;1.15;;;;;;;29.23;35.00;101798.69;5056413;28;20024;-72
2022/07/03 03:30:42;;;;;;;2.65;1.00;;;;;;;29.21;35.10;101808.75;5073720;28;20356;-72
2022/07/03 03:33:09;;;;;;;4.95;1.60;;;;;;;28.86;36.07;101800.56;5056296;28;20020;-72
2022/07/03 03:35:38;;;;;;;3.50;1.00;;;;;;;28.98;35.66;101809.59;5074647;28;20081;-72
2022/07/03 03:38:04;;;;;;;1.98;1.10;;;;;;;28.91;35.97;101804.63;5055176;28;20531;-71
2022/07/03 03:40:32;;;;;;;4.72;0.82;;;;;;;28.80;36.08;101796.50;5074470;28;20037;-72
2022/07/03 03:42:57;;;;;;;3.17;1.13;;;;;;;28.96;36.00;101800.75;5074022;28;20133;-72
2022/07/03 03:45:23;;;;;;;9.15;1.13;;;;;;;29.11;35.52;101800.50;5055360;28;20545;-72
2022/07/03 03:47:48;;;;;;;4.68;0.80;;;;;;;29.34;35.15;101797.09;5056014;28;20441;-72
2022/07/03 03:50:13;;;;;;;3.10;0.90;;;;;;;28.90;36.18;101802.91;5055935;28;20502;-73
2022/07/03 03:52:39;;;;;;;2.22;0.80;;;;;;;28.82;35.86;101810.66;5054804;28;20028;-72
2022/07/03 03:55:05;;;;;;;4.50;1.10;;;;;;;27.88;37.50;101815.38;5055685;28;20040;-72
2022/07/03 03:57:31;;;;;;;4.63;0.90;;;;;;;28.34;36.99;101813.19;5055900;28;20028;-73
2022/07/03 03:59:57;;;;;;;4.07;0.80;;;;;;;28.58;36.16;101798.00;5054844;28;20119;-73
2022/07/03 04:02:22;;;;;;;4.38;1.05;;;;;;;29.04;36.00;101799.19;5073902;28;20016;-73
2022/07/03 04:04:48;;;;;;;3.30;0.60;;;;;;;28.36;36.43;101808.56;5055839;28;20062;-72
2022/07/03 04:07:13;;;;;;;2.22;0.80;;;;;;;28.63;36.27;101803.06;5054889;28;20060;-72
2022/07/03 04:09:38;;;;;;;4.32;1.48;;;;;;;28.00;37.40;101802.97;5055652;28;20020;-72
2022/07/03 04:12:04;;;;;;;4.05;0.80;;;;;;;28.39;36.64;101801.13;5055682;28;20431;-72
2022/07/03 04:14:30;;;;;;;5.25;0.98;;;;;;;28.76;35.83;101808.44;5072824;28;20375;-72
2022/07/03 04:16:56;;;;;;;4.68;0.95;;;;;;;28.18;36.91;101795.44;5055346;28;20055;-72
2022/07/03 04:19:22;;;;;;;2.88;0.98;;;;;;;29.08;35.45;101794.47;5055159;28;20024;-72
2022/07/03 04:21:48;;;;;;;3.97;0.85;;;;;;;28.81;35.87;101808.97;5054733;28;20029;-73
2022/07/03 04:24:14;;;;;;;2.85;0.80;;;;;;;28.08;37.38;101815.84;5073060;28;20029;-72
2022/07/03 04:26:39;;;;;;;4.55;1.00;;;;;;;28.73;36.32;101808.66;5054487;28;20522;-72
2022/07/03 04:29:04;;;;;;;2.45;0.75;;;;;;;28.81;36.05;101803.59;5055426;28;20075;-73
2022/07/03 04:31:30;;;;;;;3.72;0.70;;;;;;;28.77;36.04;101807.47;5073150;28;20036;-72
2022/07/03 04:33:55;;;;;;;4.65;0.85;;;;;;;29.03;35.91;101818.16;5054453;28;20032;-73
2022/07/03 04:36:20;;;;;;;6.20;0.90;;;;;;;29.05;35.51;101816.22;5073381;28;20024;-72
2022/07/03 04:38:46;;;;;;;1.30;0.80;;;;;;;28.54;36.59;101815.31;5055237;28;20480;-72
2022/07/03 04:41:11;;;;;;;1.00;0.70;;;;;;;28.55;36.69;101822.41;5072145;28;20396;-72
2022/07/03 04:43:36;;;;;;;3.72;1.15;;;;;;;28.73;36.61;101827.50;5088192;28;20089;-72
2022/07/03 04:46:02;;;;;;;4.85;0.93;;;;;;;28.70;36.35;101825.88;5093204;28;20028;-72
2022/07/03 04:48:29;;;;;;;5.05;1.05;;;;;;;27.81;38.34;101819.44;5090941;28;20115;-72
2022/07/03 04:50:55;;;;;;;2.25;0.80;;;;;;;28.84;36.29;101816.81;5092854;28;20059;-72
2022/07/03 04:53:21;;;;;;;4.55;0.90;;;;;;;28.79;36.56;101821.66;5091775;28;20498;-72
2022/07/03 04:55:46;;;;;;;2.33;0.85;;;;;;;26.92;40.35;101826.97;5091029;28;20396;-72
2022/07/03 04:58:11;;;;;;;3.88;0.98;;;;;;;26.55;40.90;101836.44;5091584;28;20107;-72
2022/07/03 05:00:37;;;;;;;4.75;0.80;;;;;;;27.90;38.17;101828.69;5091609;28;20411;-72
2022/07/03 05:03:02;;;;;;;7.63;1.27;;;;;;;28.12;37.62;101830.78;5090845;28;20380;-72
2022/07/03 05:05:28;;;;;;;5.45;0.93;;;;;;;28.52;37.18;101825.34;5092855;28;20081;-72
2022/07/03 05:07:53;;;;;;;4.68;1.00;;;;;;;27.61;38.46;101833.34;5091567;28;20023;-72
2022/07/03 05:10:19;;;;;;;5.47;1.00;;;;;;;26.44;40.80;101837.09;5091741;28;20020;-72
2022/07/03 05:12:44;;;;;;;6.32;0.95;;;;;;;27.30;39.90;101829.97;5091485;28;20490;-72
2022/07/03 05:15:10;;;;;;;5.55;0.98;;;;;;;27.88;39.19;101830.63;5091339;28;20024;-72
2022/07/03 05:17:35;;;;;;;8.40;1.23;;;;;;;28.27;37.66;101839.63;5090282;28;20020;-72
2022/07/03 05:22:45;;;;;;;4.75;1.40;;;;;;;27.40;39.79;101841.84;5092122;28;20035;-72
2022/07/03 05:25:11;;;;;;;4.50;0.90;;;;;;;28.69;37.43;101836.75;5091112;28;20024;-72
2022/07/03 05:27:37;;;;;;;9.02;1.35;;;;;;;29.36;36.32;101835.50;5092472;28;20024;-72
2022/07/03 05:30:03;;;;;;;6.35;0.98;;;;;;;28.49;37.88;101844.34;5089856;28;20031;-72
2022/07/03 05:32:28;;;;;;;6.22;0.90;;;;;;;26.55;40.69;101848.03;5090821;28;20024;-72
2022/07/03 05:34:53;;;;;;;6.65;1.00;;;;;;;27.12;39.87;101849.00;5091161;28;20463;-72
2022/07/03 05:37:19;;;;;;;6.03;1.10;;;;;;;27.74;39.03;101850.38;5090231;28;20034;-72
2022/07/03 05:39:44;;;;;;;4.20;1.13;;;;;;;27.47;40.13;101853.91;5091238;28;20391;-72
2022/07/03 05:42:09;;;;;;;4.13;1.10;;;;;;;27.58;39.59;101846.00;5090314;28;20488;-72
2022/07/03 05:44:35;;;;;;;3.22;0.90;;;;;;;27.23;40.67;101846.47;5090135;28;20020;-72
2022/07/03 05:47:00;;;;;;;3.88;1.00;;;;;;;28.03;39.11;101834.13;5090875;28;20107;-72
2022/07/03 05:49:26;;;;;;;9.32;1.38;;;;;;;26.24;42.05;101852.59;5090726;28;20023;-72
2022/07/03 05:51:51;;;;;;;4.93;1.30;;;;;;;27.05;41.08;101855.69;5089875;28;20027;-72
2022/07/03 05:54:16;;;;;;;6.15;1.20;;;;;;;26.53;42.63;101855.31;5092140;28;20031;-72
2022/07/03 05:56:42;;;;;;;7.10;1.42;;;;;;;26.81;41.91;101860.81;5092143;28;20028;-72
2022/07/03 05:59:07;;;;;;;5.53;1.20;;;;;;;26.33;42.07;101855.66;5091270;28;20049;-72
2022/07/03 06:01:33;;;;;;;5.55;1.20;;;;;;;27.07;41.04;101851.09;5090729;28;20102;-72
2022/07/03 06:03:58;;;;;;;5.47;1.42;;;;;;;26.57;41.98;101856.84;5090315;28;20024;-73
2022/07/03 06:06:24;;;;;;;5.90;1.23;;;;;;;25.09;45.22;101857.38;5089501;28;20511;-72
2022/07/03 06:08:49;;;;;;;3.88;1.08;;;;;;;25.81;44.53;101849.75;5090385;28;20028;-72
2022/07/03 06:11:14;;;;;;;7.38;1.80;;;;;;;25.98;44.17;101845.22;5090312;28;20031;-72
2022/07/03 06:13:40;;;;;;;4.85;1.80;;;;;;;26.76;42.53;101853.03;5089574;28;20028;-71
2022/07/03 06:16:05;;;;;;;7.68;1.20;;;;;;;27.10;41.21;101853.59;5091568;28;20027;-72
2022/07/03 06:18:30;;;;;;;5.78;1.42;;;;;;;29.13;37.60;101856.88;5090360;28;20028;-72
2022/07/03 06:20:56;;;;;;;6.53;1.83;;;;;;;28.94;36.95;101850.13;5089587;28;20020;-72
2022/07/03 06:23:21;;;;;;;8.05;1.17;;;;;;;30.77;33.70;101844.50;5090234;28;20198;-72
2022/07/03 06:25:46;;;;;;;3.08;1.15;;;;;;;31.96;32.48;101838.31;5090695;28;20047;-72
2022/07/03 06:28:12;;;;;;;9.55;1.55;;;;;;;34.01;29.15;101839.13;5089675;28;20118;-72
2022/07/03 06:30:37;;;;;;;3.03;0.90;;;;;;;34.63;28.28;101843.06;5090519;28;20020;-72
2022/07/03 06:33:03;;;;;;;6.80;1.25;;;;;;;35.83;25.36;101845.75;5089647;28;20050;-72
2022/07/03 06:35:28;;;;;;;5.45;1.30;;;;;;;35.82;26.88;101844.91;5090131;28;20031;-72
2022/07/03 06:37:53;;;;;;;4.38;1.13;;;;;;;37.14;24.08;101840.19;5091461;28;20024;-72
2022/07/03 06:40:18;;;;;;;1.55;0.75;;;;;;;37.21;24.06;101848.53;5090784;28;20034;-72
2022/07/03 06:42:44;;;;;;;4.25;1.00;;;;;;;38.37;22.74;101843.94;5091650;28;20114;-72
2022/07/03 06:45:10;;;;;;;4.07;0.95;;;;;;;38.49;22.73;101845.28;5093815;28;20032;-72
2022/07/03 06:47:39;;;;;;;4.18;0.80;;;;;;;39.24;21.77;101843.09;5093469;28;20536;-72
2022/07/03 06:50:06;;;;;;;6.57;1.77;;;;;;;38.66;22.48;101851.53;5095371;28;20036;-72
2022/07/03 06:52:31;;;;;;;6.43;0.70;;;;;;;37.88;23.32;101844.03;5093857;28;20024;-72
2022/07/03 06:54:57;;;;;;;4.43;0.77;;;;;;;37.63;23.02;101838.56;5093395;28;20024;-73
2022/07/03 06:57:22;;;;;;;4.72;1.00;;;;;;;34.37;25.98;101842.03;5093856;28;20024;-73
2022/07/03 06:59:48;;;;;;;5.40;1.52;;;;;;;36.57;24.32;101838.06;5093866;28;20035;-73
2022/07/03 07:02:13;;;;;;;4.00;0.90;;;;;;;33.71;26.66;101836.38;5094498;28;20043;-73
2022/07/03 07:04:39;;;;;;;5.60;1.00;;;;;;;29.67;33.02;101844.84;5093810;28;20041;-72
2022/07/03 07:07:04;;;;;;;2.95;0.80;;;;;;;32.70;29.13;101846.44;5095124;28;20024;-72
2022/07/03 07:09:30;;;;;;;4.55;1.15;;;;;;;31.64;30.43;101843.75;5092713;28;20027;-72
2022/07/03 07:11:55;;;;;;;3.72;1.20;;;;;;;31.80;30.63;101848.72;5093580;28;20050;-72
2022/07/03 07:14:21;;;;;;;3.17;1.00;;;;;;;32.41;29.82;101852.56;5093537;28;20073;-72
2022/07/03 07:16:46;;;;;;;3.45;0.82;;;;;;;29.65;34.29;101860.28;5092972;28;20051;-73
2022/07/03 07:19:11;;;;;;;2.45;0.80;;;;;;;30.04;34.82;101865.47;5093528;28;20028;-72
2022/07/03 07:21:37;;;;;;;3.55;1.30;;;;;;;30.31;33.14;101872.38;5093290;28;20056;-72
2022/07/03 07:24:03;;;;;;;2.58;1.00;;;;;;;28.78;35.13;101871.03;5092835;28;20088;-73
2022/07/03 07:26:28;;;;;;;2.80;1.10;;;;;;;28.90;35.73;101877.38;5093421;28;20028;-73
2022/07/03 07:28:53;;;;;;;2.88;0.88;;;;;;;31.02;32.35;101875.78;5093435;28;20020;-73
2022/07/03 07:31:19;;;;;;;2.75;1.10;;;;;;;29.06;34.73;101869.94;5092214;28;20024;-73
2022/07/03 07:33:44;;;;;;;5.22;1.20;;;;;;;30.35;33.87;101876.56;5094674;28;20028;-74
2022/07/03 07:36:09;;;;;;;2.28;0.95;;;;;;;30.84;33.11;101878.09;5094447;28;20027;-73
2022/07/03 07:38:35;;;;;;;2.65;0.90;;;;;;;30.63;32.75;101876.13;5092419;28;20151;-73
2022/07/03 07:41:00;;;;;;;4.18;1.00;;;;;;;30.95;32.10;101878.13;5093177;28;20043;-73
2022/07/03 07:43:25;;;;;;;6.38;1.35;;;;;;;29.14;34.87;101880.16;5092181;28;20051;-74
2022/07/03 07:45:52;;;;;;;4.35;0.90;;;;;;;30.22;33.39;101876.66;5092949;28;20059;-72
2022/07/03 07:48:18;;;;;;;4.05;0.95;;;;;;;31.04;32.21;101881.09;5093101;28;20584;-72
2022/07/03 07:50:44;;;;;;;4.75;1.10;;;;;;;31.44;31.25;101889.47;5092126;28;20135;-72
2022/07/03 07:53:09;;;;;;;2.80;1.05;;;;;;;29.93;34.42;101882.47;5092092;28;20457;-73
2022/07/03 07:55:35;;;;;;;3.22;1.10;;;;;;;32.51;30.47;101883.22;5092866;28;20102;-72
2022/07/03 07:58:00;;;;;;;2.10;1.30;;;;;;;33.82;28.17;101881.50;5093271;28;20039;-73
2022/07/03 08:00:25;;;;;;;3.08;1.00;;;;;;;31.89;31.14;101883.06;5092791;28;20024;-72
2022/07/03 08:05:38;;;;;;;3.47;1.02;;;;;;;32.33;30.42;101887.53;5093418;28;20111;-73
2022/07/03 08:08:12;;;;;;;5.22;1.23;;;;;;;31.37;31.53;101890.13;5093881;28;20028;-73
2022/07/03 08:10:45;;;;;;;3.13;1.02;;;;;;;31.00;33.01;101893.09;5092540;28;20020;-73
2022/07/03 08:13:12;;;;;;;3.45;0.93;;;;;;;31.32;31.99;101903.97;5091284;28;20024;-73
2022/07/03 08:15:39;;;;;;;2.53;0.90;;;;;;;29.83;34.70;101898.44;5093616;28;20051;-73
2022/07/03 08:18:05;;;;;;;4.07;1.25;;;;;;;31.76;31.81;101895.91;5092400;28;20031;-73
2022/07/03 08:20:31;;;;;;;3.50;1.10;;;;;;;32.44;31.67;101893.72;5091554;28;20499;-73
2022/07/03 08:22:57;;;;;;;6.35;0.93;;;;;;;31.87;31.24;101892.31;5091960;28;20085;-73
2022/07/03 08:25:23;;;;;;;4.07;1.27;;;;;;;30.50;33.62;101904.19;5093910;28;20024;-73
2022/07/03 08:27:48;;;;;;;3.95;0.90;;;;;;;31.19;32.65;101901.44;5092735;28;20494;-73
2022/07/03 08:30:17;;;;;;;4.03;1.10;;;;;;;28.75;35.54;101898.16;5093283;28;20036;-72
2022/07/03 08:32:47;;;;;;;7.05;1.35;;;;;;;28.46;36.85;101900.19;5091244;28;20516;-73
2022/07/03 08:35:13;;;;;;;4.35;1.25;;;;;;;30.68;33.70;101899.19;5093359;28;20024;-73
2022/07/03 08:37:40;;;;;;;1.77;1.20;;;;;;;32.06;32.01;101897.84;5092005;28;20550;-73
2022/07/03 08:40:07;;;;;;;3.38;1.27;;;;;;;32.48;30.63;101891.63;5091211;28;20365;-73
2022/07/03 08:42:34;;;;;;;3.60;1.13;;;;;;;32.84;30.60;101892.09;5091409;28;20043;-73
2022/07/03 08:45:01;;;;;;;3.20;1.13;;;;;;;32.07;30.72;101890.63;5091922;28;20043;-73
2022/07/03 08:47:28;;;;;;;4.57;1.10;;;;;;;33.22;30.33;101895.94;5092496;28;20446;-73
2022/07/03 08:49:55;;;;;;;4.55;0.90;;;;;;;33.58;29.31;101885.47;5091764;28;20024;-73
2022/07/03 08:52:22;;;;;;;4.88;1.08;;;;;;;32.63;30.11;101883.97;5091528;28;20024;-73
2022/07/03 08:54:48;;;;;;;4.05;0.85;;;;;;;33.49;28.53;101892.56;5092363;28;20028;-73
2022/07/03 08:57:14;;;;;;;4.40;1.08;;;;;;;35.12;29.00;101889.00;5091764;28;20077;-73
2022/07/03 08:59:41;;;;;;;3.78;1.13;;;;;;;35.98;26.70;101882.28;5092641;28;20404;-73
2022/07/03 09:02:07;;;;;;;3.38;0.98;;;;;;;35.40;26.50;101883.56;5092323;28;20103;-73
2022/07/03 09:04:33;;;;;;;5.90;0.85;;;;;;;35.46;26.25;101887.53;5090982;28;20027;-73
2022/07/03 09:06:59;;;;;;;6.10;0.90;;;;;;;32.56;29.54;101883.69;5092815;28;20032;-73
2022/07/03 09:09:25;;;;;;;2.83;1.00;;;;;;;33.48;28.49;101884.59;5090799;28;20028;-74
2022/07/03 09:11:51;;;;;;;3.28;1.20;;;;;;;32.18;30.31;101879.75;5091318;28;20031;-73
2022/07/03 09:14:16;;;;;;;1.48;0.80;;;;;;;32.37;29.95;101872.75;5091270;28;20048;-73
2022/07/03 09:16:42;;;;;;;2.70;1.05;;;;;;;33.41;28.79;101880.72;5090511;28;20490;-73
2022/07/03 09:19:07;;;;;;;3.85;0.90;;;;;;;33.15;29.70;101883.91;5091443;28;20027;-73
2022/07/03 09:21:37;;;;;;;3.88;1.05;;;;;;;30.41;33.27;101882.34;5091351;28;20111;-73
2022/07/03 09:24:10;;;;;;;4.72;1.25;;;;;;;29.65;35.02;101889.03;5090443;28;20062;-73
2022/07/03 09:26:49;;;;;;;4.20;1.02;;;;;;;30.15;33.79;101899.69;5091217;28;20026;-73
2022/07/03 09:29:14;;;;;;;4.57;1.25;;;;;;;30.40;34.15;101902.19;5090381;28;20032;-73
2022/07/03 09:31:39;;;;;;;7.10;1.25;;;;;;;28.71;38.07;101910.09;5091017;28;20028;-73
2022/07/03 09:34:09;;;;;;;4.88;1.73;;;;;;;28.33;39.30;101906.41;5092309;28;20028;-73
2022/07/03 09:36:40;;;;;;;5.90;2.30;;;;;;;25.48;46.28;101920.31;5091137;28;20052;-73
2022/07/03 09:39:29;;;;;;;4.00;1.50;;;;;;;25.75;47.04;101919.72;5090836;28;20032;-72
2022/07/03 09:42:05;;;;;;;4.65;1.65;;;;;;;26.50;46.55;101933.25;5087976;28;20064;-73
2022/07/03 09:44:40;;;;;;;5.05;2.33;;;;;;;27.55;44.20;101928.59;5053304;28;20082;-72
2022/07/03 09:47:14;;;;;;;5.05;1.90;;;;;;;27.41;45.01;101924.97;5071919;28;20016;-72
2022/07/03 09:49:47;;;;;;;8.00;2.80;;;;;;;26.77;46.47;101916.44;5071828;28;20099;-71
2022/07/03 09:52:31;;;;;;;;;;;;;;;25.95;49.23;101921.22;5053772;28;20027;-70
2022/07/03 09:55:09;;;;;;;7.38;2.25;;;;;;;28.25;44.80;101922.19;5053911;28;20273;-71
2022/07/03 09:57:36;;;;;;;3.28;2.20;;;;;;;29.16;43.09;101920.41;5053130;28;20492;-71
2022/07/03 10:00:17;;;;;;;4.05;2.42;;;;;;;29.71;42.43;101920.91;5053936;28;20016;-71
2022/07/03 10:03:03;;;;;;;3.83;2.15;;;;;;;29.90;40.90;101915.88;5053699;28;20025;-71
2022/07/03 10:05:36;;;;;;;5.57;2.00;;;;;;;30.26;40.12;101922.13;5053121;28;20591;-71
2022/07/03 10:08:06;;;;;;;7.47;2.25;;;;;;;32.20;40.30;101921.03;5053804;28;20028;-71
2022/07/03 10:10:40;;;;;;;5.20;1.63;;;;;;;33.67;34.84;101923.56;5053667;28;20043;-71
2022/07/03 10:13:06;;;;;;;5.88;1.58;;;;;;;33.77;36.45;101921.72;5052828;28;20017;-71
2022/07/03 10:15:37;;;;;;;2.15;1.00;;;;;;;32.32;35.18;101926.41;5053783;28;20373;-71
2022/07/03 10:18:05;;;;;;;4.82;1.35;;;;;;;33.34;34.06;101923.78;5057785;28;20024;-71
2022/07/03 10:20:34;;;;;;;4.00;1.00;;;;;;;31.63;35.91;101931.22;5057069;28;20025;-71
2022/07/03 10:23:00;;;;;;;3.45;1.13;;;;;;;31.85;35.46;101938.38;5075325;28;20036;-71
2022/07/03 10:25:26;;;;;;;4.00;1.20;;;;;;;31.73;36.02;101926.75;5056992;28;20029;-71
2022/07/03 10:27:51;;;;;;;4.05;1.17;;;;;;;31.50;35.08;101928.59;5057608;28;20070;-71
2022/07/03 10:30:21;;;;;;;3.80;1.30;;;;;;;30.21;36.63;101927.03;5057622;28;20078;-71
2022/07/03 10:32:49;;;;;;;4.50;1.30;;;;;;;31.58;36.68;101930.69;5056373;28;20456;-71
2022/07/03 10:35:19;;;;;;;4.07;1.40;;;;;;;29.95;39.23;101940.66;5057377;28;20115;-71
2022/07/03 10:38:00;;;;;;;3.33;1.48;;;;;;;31.30;36.73;101939.22;5057373;28;20024;-71
2022/07/03 10:46:24;;;;;;;2.88;1.23;;;;;;;32.82;34.32;101931.97;5074795;28;20125;-71
2022/07/03 10:48:55;;;;;;;2.60;0.98;;;;;;;32.85;32.90;101937.13;5057116;28;20024;-71
2022/07/03 10:51:22;;;;;;;4.80;1.40;;;;;;;31.74;32.69;101930.31;5074820;28;20043;-71
2022/07/03 10:53:48;;;;;;;9.75;1.40;;;;;;;30.94;33.84;101937.59;5056313;28;20039;-71
2022/07/03 10:56:17;;;;;;;2.95;1.08;;;;;;;31.04;34.32;101937.78;5075116;28;20034;-71
2022/07/03 10:58:57;;;;;;;3.17;1.10;;;;;;;29.01;36.90;101933.13;5056729;28;20071;-71
2022/07/03 11:01:27;;;;;;;2.53;1.20;;;;;;;29.02;37.30;101945.63;5056173;28;20383;-71
2022/07/03 11:03:55;;;;;;;3.03;0.95;;;;;;;28.89;37.47;101943.78;5074873;28;20054;-71
2022/07/03 11:06:22;;;;;;;3.45;1.00;;;;;;;27.43;40.16;101951.69;5056768;28;20017;-71
2022/07/03 11:09:06;;;;;;;1.45;0.77;;;;;;;28.10;39.42;101953.66;5073806;28;20490;-71
2022/07/03 11:11:59;;;;;;;1.80;0.85;;;;;;;28.23;39.56;101957.25;5056742;28;20041;-71
2022/07/03 11:14:27;;;;;;;2.05;0.95;;;;;;;28.94;39.15;101956.91;5055889;28;20025;-70
2022/07/03 11:17:18;;;;;;;3.70;1.00;;;;;;;27.78;41.11;101972.75;5056595;28;20093;-71
2022/07/03 11:20:23;;;;;;;4.03;1.30;;;;;;;29.21;38.72;101951.41;5056673;28;20373;-71
2022/07/03 11:22:51;;;;;;;4.75;1.30;;;;;;;29.31;38.63;101945.38;5073504;28;20039;-71
2022/07/03 11:25:17;;;;;;;1.85;1.20;;;;;;;29.41;38.24;101941.88;5056457;28;20522;-71
2022/07/03 11:27:42;;;;;;;2.45;1.00;;;;;;;28.44;39.84;101943.31;5055780;28;20020;-71
2022/07/03 11:30:10;;;;;;;3.95;1.15;;;;;;;29.67;37.32;101951.75;5055742;28;20058;-71
2022/07/03 11:32:52;;;;;;;2.17;1.08;;;;;;;30.25;36.49;101942.00;5056406;28;20082;-71
2022/07/03 11:35:42;;;;;;;3.40;1.17;;;;;;;30.82;35.19;101934.03;5056429;28;20047;-71
2022/07/03 11:38:08;;;;;;;2.85;1.00;;;;;;;29.16;35.81;101934.72;5074337;28;20029;-71
2022/07/03 11:40:36;;;;;;;3.45;1.17;;;;;;;30.45;32.95;101921.59;5074280;28;20031;-71
2022/07/03 11:43:01;;;;;;;4.57;1.17;;;;;;;29.55;34.90;101938.22;5078637;28;20040;-71
2022/07/03 11:45:30;;;;;;;2.92;1.15;;;;;;;30.93;33.83;101939.44;5094381;28;20028;-71
2022/07/03 11:47:55;;;;;;;4.38;1.27;;;;;;;31.87;32.68;101930.13;5092958;28;20024;-71